Time;durP1;ratioP1;P1;durP2;ratioP2;P2;SDS_P1;SDS_P2;PMS_P1;PMS_P2;Temp;Humidity;BMP_temperature;BMP_pressure;BME280_temperature;BME280_humidity;BME280_pressure;Samples;Min_cycle;Max_cycle;Signal;HPM_P1;HPM_P2
2023/06/24 00:00:03;;;;;;;;;;;21.10;79.80;;;-151.14;100.00;62537.16;5073626;28;20209;-83
2023/06/24 00:02:35;;;;;;;;;;;21.10;79.80;;;20.36;100.00;62537.16;5090634;28;20116;-83
2023/06/24 00:05:06;;;;;;;;;;;21.10;79.80;;;-151.14;100.00;62537.16;5073480;28;19920;-83
2023/06/24 00:07:44;;;;;;;;;;;21.10;79.80;;;19.40;100.00;62537.16;5073404;28;19920;-83
2023/06/24 00:10:13;;;;;;;;;;;21.10;79.80;;;-151.14;100.00;62537.16;5091476;28;19920;-83
2023/06/24 00:12:41;;;;;;;;;;;21.10;79.80;;;-151.14;100.00;62537.16;5078781;28;19920;-83
2023/06/24 00:15:10;;;;;;;;;;;21.10;79.80;;;-151.14;100.00;62537.16;5073166;28;20212;-83
2023/06/24 00:17:38;;;;;;;;;;;21.10;79.80;;;-151.14;100.00;62537.16;5091154;28;19920;-83
2023/06/24 00:20:10;;;;;;;;;;;21.10;79.80;;;-151.14;100.00;62537.16;5091300;28;19927;-83
2023/06/24 00:22:43;;;;;;;;;;;21.10;79.80;;;-151.14;100.00;62537.16;5072571;28;19927;-83
2023/06/24 00:25:11;;;;;;;;;;;21.10;79.70;;;-151.14;100.00;62537.16;5089887;28;19927;-83
2023/06/24 00:27:39;;;;;;;;;;;21.10;79.80;;;-151.14;100.00;62537.16;5091064;28;19920;-83
2023/06/24 00:30:09;;;;;;;;;;;21.10;79.90;;;-151.14;100.00;62537.16;5073230;28;19920;-83
2023/06/24 00:32:36;;;;;;;;;;;21.10;79.90;;;-151.14;100.00;62537.16;5075223;28;20230;-83
2023/06/24 00:35:06;;;;;;;;;;;21.10;80.00;;;-151.14;100.00;62537.16;5090851;28;19927;-83
2023/06/24 00:37:34;;;;;;;;;;;21.00;79.50;;;-151.14;100.00;62537.16;5090874;28;19920;-83
2023/06/24 00:40:05;;;;;;;;;;;21.00;80.10;;;-151.14;100.00;62537.16;5089851;28;19920;-83
2023/06/24 00:42:33;;;;;;;;;;;20.90;80.30;;;-151.14;100.00;62537.16;5072207;28;19926;-83
2023/06/24 00:45:03;;;;;;;;;;;20.90;80.60;;;-151.14;100.00;62537.16;5072985;28;19927;-83
2023/06/24 00:47:32;;;;;;;;;;;20.90;80.60;;;28.66;100.00;62537.16;5089647;28;19920;-83
2023/06/24 00:50:01;;;;;;;;;;;20.90;80.70;;;-151.14;100.00;62537.16;5072826;28;20216;-83
2023/06/24 00:52:29;;;;;;;;;;;20.90;80.70;;;-151.14;100.00;62537.16;5072076;28;20297;-83
2023/06/24 00:54:57;;;;;;;;;;;20.90;80.60;;;-151.14;100.00;62537.16;5090722;28;20135;-83
2023/06/24 00:57:28;;;;;;;;;;;20.90;80.80;;;-151.14;100.00;62537.16;5089662;28;20135;-83
2023/06/24 00:59:56;;;;;;;;;;;20.90;81.50;;;-151.14;100.00;62537.16;5090735;28;19926;-83
2023/06/24 01:02:27;;;;;;;;;;;20.90;80.80;;;-151.14;100.00;62537.16;5072032;28;19931;-83
2023/06/24 01:04:56;;;;;;;;;;;20.90;80.70;;;-151.14;100.00;62537.16;5074806;28;20284;-83
2023/06/24 01:07:24;;;;;;;;;;;20.90;80.70;;;20.27;100.00;62537.16;5093012;28;19927;-83
2023/06/24 01:09:52;;;;;;;;;;;20.90;80.60;;;-151.14;100.00;62537.16;5075849;28;19920;-83
2023/06/24 01:12:20;;;;;;;;;;;21.00;80.60;;;-151.14;100.00;62537.16;5075673;28;19921;-83
2023/06/24 01:14:49;;;;;;;;;;;20.90;80.60;;;;;;5092592;28;19924;-83
2023/06/24 01:17:17;;;;;;;;;;;20.90;80.60;;;-151.14;100.00;62537.16;5094087;28;19928;-83
2023/06/24 01:20:00;;;;;;;;;;;21.00;80.60;;;-151.14;100.00;62537.16;5092612;28;20118;-83
2023/06/24 01:22:49;;;;;;;;;;;20.90;80.70;;;-151.14;100.00;62537.16;5092279;28;20212;-83
2023/06/24 01:25:27;;;;;;;;;;;20.90;80.80;;;-151.14;100.00;62537.16;5092511;28;19920;-83
2023/06/24 01:28:16;;;;;;;;;;;20.90;80.80;;;-151.14;100.00;62537.16;5092605;28;19924;-83
2023/06/24 01:31:19;;;;;;;;;;;20.90;80.80;;;-151.14;100.00;62537.16;5092487;28;19920;-83
2023/06/24 01:33:49;;;;;;;;;;;20.90;80.70;;;-151.14;100.00;62537.16;5109555;28;19927;-83
2023/06/24 01:36:18;;;;;;;;;;;20.90;80.80;;;-151.14;100.00;62537.16;5092444;28;19920;-83
2023/06/24 01:38:48;;;;;;;;;;;21.00;80.80;;;-151.14;100.00;62537.16;5092420;28;19926;-83
2023/06/24 01:41:17;;;;;;;;;;;21.00;80.80;;;-151.14;100.00;62537.16;5074978;28;19920;-83
2023/06/24 01:43:45;;;;;;;;;;;20.90;80.80;;;-151.14;100.00;62537.16;5075756;28;19920;-84
2023/06/24 01:46:16;;;;;;;;;;;20.90;80.80;;;-151.14;100.00;62537.16;5093435;28;19920;-84
2023/06/24 01:48:46;;;;;;;;;;;20.90;80.80;;;-151.14;100.00;62537.16;5092215;28;19926;-85
2023/06/24 01:51:18;;;;;;;;;;;20.90;80.80;;;20.24;100.00;62537.16;5091886;28;19926;-85
2023/06/24 01:53:50;;;;;;;;;;;20.90;80.80;;;28.66;100.00;62537.16;5092123;28;19920;-84
2023/06/24 01:56:18;;;;;;;;;;;20.90;80.90;;;-151.14;100.00;62537.16;5075290;28;19935;-84
2023/06/24 01:58:47;;;;;;;;;;;21.00;80.90;;;-151.14;100.00;62537.16;5075218;28;20116;-85
2023/06/24 02:01:15;;;;;;;;;;;21.00;81.60;;;-151.14;100.00;62537.16;5092675;28;19920;-84
2023/06/24 02:03:43;;;;;;;;;;;21.00;82.00;;;28.66;100.00;62537.16;5075347;28;19921;-85
2023/06/24 02:06:13;;;;;;;;;;;21.00;81.90;;;18.09;100.00;62537.16;5108368;28;20101;-84
2023/06/24 02:08:41;;;;;;;;;;;21.00;82.20;;;-151.14;100.00;62537.16;5091063;28;19920;-85
2023/06/24 02:11:09;;;;;;;;;;;21.00;82.80;;;-151.14;100.00;62537.16;5091383;28;20210;-84
2023/06/24 02:13:37;;;;;;;;;;;21.00;83.00;;;-151.14;100.00;62537.16;5091791;28;19930;-84
2023/06/24 02:16:06;;;;;;;;;;;21.10;82.90;;;-151.14;100.00;62537.16;5074128;28;19921;-84
2023/06/24 02:18:35;;;;;;;;;;;21.10;83.30;;;18.08;100.00;62537.16;5108775;28;19920;-85
2023/06/24 02:21:02;;;;;;;;;;;21.10;83.20;;;-151.14;100.00;62537.16;5092835;28;19926;-85
2023/06/24 02:23:32;;;;;;;;;;;21.10;83.20;;;18.09;100.00;62537.16;5092256;28;19920;-85
2023/06/24 02:26:00;;;;;;;;;;;21.10;83.30;;;-151.14;100.00;62537.16;5091812;28;19920;-85
2023/06/24 02:28:28;;;;;;;;;;;21.10;83.00;;;-151.14;100.00;62537.16;5091791;28;20208;-85
2023/06/24 02:30:56;;;;;;;;;;;21.10;83.40;;;-151.14;100.00;62537.16;5074944;28;19926;-84
2023/06/24 02:33:24;;;;;;;;;;;21.10;83.50;;;-151.14;100.00;62537.16;5107954;28;19942;-85
2023/06/24 02:35:52;;;;;;;;;;;21.10;83.30;;;20.42;100.00;62537.16;5087602;28;19920;-85
2023/06/24 02:38:20;;;;;;;;;;;21.10;83.40;;;-151.14;100.00;62537.16;5091326;28;19927;-84
2023/06/24 02:40:50;;;;;;;;;;;21.10;83.00;;;-151.14;100.00;62537.16;5091489;28;19920;-84
2023/06/24 02:43:18;;;;;;;;;;;21.10;83.30;;;-151.14;100.00;62537.16;5090729;28;20211;-84
2023/06/24 02:45:47;;;;;;;;;;;21.10;83.40;;;-151.14;100.00;62537.16;5091411;28;20119;-84
2023/06/24 02:48:15;;;;;;;;;;;21.10;83.30;;;-151.14;100.00;62537.16;5091457;28;19920;-85
2023/06/24 02:50:44;;;;;;;;;;;21.10;83.30;;;-151.14;100.00;62537.16;5074465;28;20238;-85
2023/06/24 02:53:12;;;;;;;;;;;21.10;83.60;;;-151.14;100.00;62537.16;5090702;28;19920;-84
2023/06/24 02:55:40;;;;;;;;;;;21.10;83.40;;;-151.14;100.00;62537.16;5091189;28;20382;-84
2023/06/24 02:58:10;;;;;;;;;;;21.10;83.70;;;-151.14;100.00;62537.16;5108321;28;19926;-84
2023/06/24 03:01:02;;;;;;;;;;;21.10;83.80;;;-151.14;100.00;62537.16;5083133;28;19927;-85
2023/06/24 03:03:36;;;;;;;;;;;21.10;83.90;;;-151.14;100.00;62537.16;5074461;28;19921;-85
2023/06/24 03:06:07;;;;;;;;;;;21.10;84.00;;;-151.14;100.00;62537.16;5074219;28;19920;-84
2023/06/24 03:08:37;;;;;;;;;;;21.10;83.80;;;-151.14;100.00;62537.16;5074396;28;20208;-85
2023/06/24 03:11:05;;;;;;;;;;;21.10;83.50;;;-151.14;100.00;62537.16;5107945;28;20207;-85
2023/06/24 03:13:36;;;;;;;;;;;21.10;83.00;;;-151.14;100.00;62537.16;5090922;28;19927;-85
2023/06/24 03:16:21;;;;;;;;;;;21.10;82.60;;;-151.14;100.00;62537.16;5073718;28;19920;-84
2023/06/24 03:18:55;;;;;;;;;;;21.10;82.20;;;-151.14;100.00;62537.16;5091075;28;19950;-85
2023/06/24 03:21:28;;;;;;;;;;;21.10;81.80;;;-151.14;100.00;62537.16;5073412;28;19920;-85
2023/06/24 03:23:58;;;;;;;;;;;21.10;81.20;;;-151.14;100.00;62537.16;5074047;28;19926;-84
2023/06/24 03:26:33;;;;;;;;;;;21.10;80.90;;;-151.14;100.00;62537.16;5090836;28;19920;-85
2023/06/24 03:29:02;;;;;;;;;;;21.10;80.90;;;-151.14;100.00;62537.16;5090848;28;19927;-85
2023/06/24 03:31:31;;;;;;;;;;;21.10;81.00;;;-151.14;100.00;62537.16;5090032;28;19920;-85
2023/06/24 03:34:00;;;;;;;;;;;21.10;80.70;;;-151.14;100.00;62537.16;5073925;28;19927;-84
2023/06/24 03:36:29;;;;;;;;;;;21.10;80.70;;;-151.14;100.00;62537.16;5073651;28;19920;-84
2023/06/24 03:38:57;;;;;;;;;;;21.10;80.70;;;-151.14;100.00;62537.16;5073892;28;20226;-84
2023/06/24 03:41:26;;;;;;;;;;;21.10;80.70;;;-151.14;100.00;62537.16;5091069;28;19942;-85
2023/06/24 03:43:55;;;;;;;;;;;21.10;80.80;;;-151.14;100.00;62537.16;5090440;28;19920;-84
2023/06/24 03:46:25;;;;;;;;;;;21.10;80.60;;;;;;5107354;28;19920;-85
2023/06/24 03:48:53;;;;;;;;;;;21.10;80.70;;;-151.14;100.00;62537.16;5090645;28;19920;-84
2023/06/24 03:51:21;;;;;;;;;;;21.10;80.50;;;-151.14;100.00;62537.16;5106718;28;19942;-85
2023/06/24 03:53:50;;;;;;;;;;;21.10;80.60;;;-151.14;100.00;62537.16;5090402;28;19920;-85
2023/06/24 03:56:18;;;;;;;;;;;21.10;80.60;;;-151.14;100.00;62537.16;5090097;28;19927;-84
2023/06/24 03:58:46;;;;;;;;;;;21.10;81.40;;;-151.14;100.00;62537.16;5090443;28;19925;-84
2023/06/24 04:01:14;;;;;;;;;;;21.10;80.60;;;-151.14;100.00;62537.16;5072728;28;19921;-85
2023/06/24 04:03:44;;;;;;;;;;;21.10;80.60;;;-151.14;100.00;62537.16;5090247;28;20208;-85
2023/06/24 04:06:12;;;;;;;;;;;21.10;80.50;;;-151.14;100.00;62537.16;5090171;28;19920;-84
2023/06/24 04:08:40;;;;;;;;;;;21.10;80.30;;;-151.14;100.00;62537.16;5107260;28;19939;-84
2023/06/24 04:11:08;;;;;;;;;;;21.10;80.30;;;-151.14;100.00;62537.16;5106415;28;19920;-85
2023/06/24 04:13:36;;;;;;;;;;;21.10;80.20;;;-151.14;100.00;62537.16;5090183;28;19920;-85
2023/06/24 04:16:04;;;;;;;;;;;21.10;80.20;;;28.66;100.00;62537.16;5090200;28;19938;-85
2023/06/24 04:18:32;;;;;;;;;;;21.20;80.00;;;-151.14;100.00;62537.16;5073173;28;19927;-84
2023/06/24 04:21:02;;;;;;;;;;;21.20;79.90;;;28.66;100.00;62537.16;5089937;28;19926;-85
2023/06/24 04:23:30;;;;;;;;;;;21.20;79.70;;;-151.14;100.00;62537.16;5106230;28;20356;-84
2023/06/24 04:25:58;;;;;;;;;;;21.20;79.70;;;-151.14;100.00;62537.16;5072810;28;19924;-84
2023/06/24 04:28:26;;;;;;;;;;;21.20;79.60;;;-151.14;100.00;62537.16;5090198;28;20093;-85
2023/06/24 04:30:55;;;;;;;;;;;21.20;79.60;;;-151.14;100.00;62537.16;5089861;28;19930;-84
2023/06/24 04:33:23;;;;;;;;;;;21.30;79.40;;;-151.14;100.00;62537.16;5089283;28;19926;-84
2023/06/24 04:35:54;;;;;;;;;;;21.30;78.90;;;-151.14;100.00;62537.16;5072856;28;20208;-85
2023/06/24 04:38:23;;;;;;;;;;;21.30;78.90;;;-151.14;100.00;62537.16;5072890;28;19920;-85
2023/06/24 04:40:51;;;;;;;;;;;21.30;78.10;;;-151.14;100.00;62537.16;5093414;28;19926;-85
2023/06/24 04:43:19;;;;;;;;;;;21.30;77.50;;;-151.14;100.00;62537.16;5076003;28;19920;-85
2023/06/24 04:45:47;;;;;;;;;;;21.20;77.20;;;-151.14;100.00;62537.16;5092774;28;19934;-85
2023/06/24 04:48:15;;;;;;;;;;;21.20;77.80;;;-151.14;100.00;62537.16;5093182;28;19920;-85
2023/06/24 04:50:43;;;;;;;;;;;21.20;78.00;;;-151.14;100.00;62537.16;5092976;28;19935;-84
2023/06/24 04:53:11;;;;;;;;;;;21.20;77.40;;;-151.14;100.00;62537.16;5093748;28;19920;-85
2023/06/24 04:55:40;;;;;;;;;;;21.10;77.20;;;-151.14;100.00;62537.16;5076235;28;19924;-84
2023/06/24 04:58:08;;;;;;;;;;;21.10;77.60;;;39.25;100.00;62537.16;5076555;28;19920;-85
2023/06/24 05:00:36;;;;;;;;;;;21.10;77.80;;;-151.14;100.00;62537.16;5093282;28;19920;-84
2023/06/24 05:03:04;;;;;;;;;;;21.10;78.10;;;-151.14;100.00;62537.16;5092168;28;20237;-85
2023/06/24 05:05:32;;;;;;;;;;;21.10;78.30;;;-151.14;100.00;62537.16;5076032;28;20114;-85
2023/06/24 05:08:00;;;;;;;;;;;21.10;78.60;;;-151.14;100.00;62537.16;5093058;28;19920;-85
2023/06/24 05:10:28;;;;;;;;;;;21.10;78.50;;;-151.14;100.00;62537.16;5076111;28;20116;-85
2023/06/24 05:12:57;;;;;;;;;;;21.20;78.40;;;-151.14;100.00;62537.16;5092318;28;19920;-85
2023/06/24 05:15:25;;;;;;;;;;;21.20;78.20;;;-151.14;100.00;62537.16;5092923;28;19927;-84
2023/06/24 05:17:53;;;;;;;;;;;21.20;78.00;;;-151.14;100.00;62537.16;5092909;28;19927;-84
2023/06/24 05:20:21;;;;;;;;;;;21.20;78.20;;;-151.14;100.00;62537.16;5076139;28;19926;-84
2023/06/24 05:22:49;;;;;;;;;;;21.10;78.20;;;-151.14;100.00;62537.16;5093182;28;19928;-84
2023/06/24 05:25:17;;;;;;;;;;;21.10;78.10;;;-151.14;100.00;62537.16;5093803;28;19920;-84
2023/06/24 05:27:45;;;;;;;;;;;21.10;78.20;;;-151.14;100.00;62537.16;5092772;28;19942;-84
2023/06/24 05:30:15;;;;;;;;;;;21.10;78.40;;;-151.14;100.00;62537.16;5093869;28;19920;-85
2023/06/24 05:32:43;;;;;;;;;;;21.20;78.30;;;-151.14;100.00;62537.16;5091597;28;20212;-84
2023/06/24 05:35:11;;;;;;;;;;;21.10;78.20;;;-151.14;100.00;62537.16;5075696;28;20115;-85
2023/06/24 05:37:39;;;;;;;;;;;21.10;78.20;;;-151.14;100.00;62537.16;5092455;28;19920;-84
2023/06/24 05:40:09;;;;;;;;;;;21.20;78.20;;;-151.14;100.00;62537.16;5093701;28;20112;-85
2023/06/24 05:42:37;;;;;;;;;;;21.20;78.50;;;-151.14;100.00;62537.16;5091807;28;19920;-84
2023/06/24 05:45:06;;;;;;;;;;;21.20;78.50;;;-151.14;100.00;62537.16;5075637;28;19920;-84
2023/06/24 05:47:36;;;;;;;;;;;21.30;78.70;;;-151.14;100.00;62537.16;5092364;28;19920;-84
2023/06/24 05:50:04;;;;;;;;;;;21.30;78.40;;;-151.14;100.00;62537.16;5091674;28;19926;-84
2023/06/24 05:52:32;;;;;;;;;;;21.30;78.20;;;-151.14;100.00;62537.16;5091087;28;19920;-84
2023/06/24 05:55:00;;;;;;;;;;;21.40;78.10;;;-151.14;100.00;62537.16;5092365;28;19924;-84
2023/06/24 05:57:28;;;;;;;;;;;21.50;78.10;;;-151.14;100.00;62537.16;5092130;28;19927;-84
2023/06/24 05:59:56;;;;;;;;;;;21.50;77.80;;;-151.14;100.00;62537.16;5092277;28;19920;-84
2023/06/24 06:02:24;;;;;;;;;;;21.50;77.80;;;-151.14;100.00;62537.16;5092609;28;19920;-84
2023/06/24 06:04:53;;;;;;;;;;;21.60;77.60;;;-151.14;100.00;62537.16;5092066;28;19942;-84
2023/06/24 06:07:21;;;;;;;;;;;21.60;78.20;;;-151.14;100.00;62537.16;5093178;28;19920;-83
2023/06/24 06:09:49;;;;;;;;;;;21.70;77.50;;;-151.14;100.00;62537.16;5092266;28;20230;-84
2023/06/24 06:12:17;;;;;;;;;;;21.70;77.50;;;-151.14;100.00;62537.16;5091404;28;19920;-84
2023/06/24 06:14:45;;;;;;;;;;;21.80;76.70;;;-151.14;100.00;62537.16;5093050;28;19926;-84
2023/06/24 06:17:14;;;;;;;;;;;21.80;76.70;;;-151.14;100.00;62537.16;5091790;28;19920;-83
2023/06/24 06:19:46;;;;;;;;;;;21.80;76.60;;;-151.14;100.00;62537.16;5092078;28;19920;-83
2023/06/24 06:22:16;;;;;;;;;;;21.90;76.70;;;-151.14;100.00;62537.16;5091255;28;19920;-83
2023/06/24 06:24:43;;;;;;;;;;;21.90;76.60;;;-151.14;100.00;62537.16;5091879;28;19942;-83
2023/06/24 06:27:11;;;;;;;;;;;22.00;76.30;;;-151.14;100.00;62537.16;5091593;28;19927;-83
2023/06/24 06:29:39;;;;;;;;;;;22.00;76.20;;;-151.14;100.00;62537.16;5092131;28;19920;-84
2023/06/24 06:32:08;;;;;;;;;;;22.00;76.30;;;-151.14;100.00;62537.16;5091093;28;19920;-83
2023/06/24 06:34:36;;;;;;;;;;;22.10;76.40;;;-151.14;100.00;62537.16;5091701;28;19920;-83
2023/06/24 06:37:05;;;;;;;;;;;22.10;76.30;;;-151.14;100.00;62537.16;5092592;28;19920;-84
2023/06/24 06:39:34;;;;;;;;;;;22.10;76.20;;;-151.14;100.00;62537.16;5092808;28;19920;-84
2023/06/24 06:42:02;;;;;;;;;;;22.10;76.50;;;-151.14;100.00;62537.16;5090858;28;19921;-84
2023/06/24 06:44:30;;;;;;;;;;;22.10;76.70;;;-151.14;100.00;62537.16;5091757;28;19926;-84
2023/06/24 06:46:58;;;;;;;;;;;22.20;76.80;;;-151.14;100.00;62537.16;5091458;28;19951;-83
2023/06/24 06:49:26;;;;;;;;;;;22.20;76.60;;;-151.14;100.00;62537.16;5108319;28;20408;-84
2023/06/24 06:51:55;;;;;;;;;;;22.30;76.70;;;-151.14;100.00;62537.16;5074108;28;19927;-84
2023/06/24 06:54:23;;;;;;;;;;;22.30;76.50;;;-151.14;100.00;62537.16;5092630;28;19920;-84
2023/06/24 06:56:52;;;;;;;;;;;22.30;76.20;;;-151.14;100.00;62537.16;5091446;28;19924;-84
2023/06/24 06:59:20;;;;;;;;;;;22.40;76.30;;;-151.14;100.00;62537.16;5074498;28;19920;-84
2023/06/24 07:01:48;;;;;;;;;;;22.40;76.20;;;-151.14;100.00;62537.16;5073343;28;19924;-84
2023/06/24 07:04:16;;;;;;;;;;;22.40;76.00;;;-151.14;100.00;62537.16;5092530;28;19934;-84
2023/06/24 07:06:44;;;;;;;;;;;22.50;76.10;;;-151.14;100.00;62537.16;5092292;28;19920;-84
2023/06/24 07:09:12;;;;;;;;;;;22.50;76.30;;;-151.14;100.00;62537.16;5092227;28;19927;-84
2023/06/24 07:11:40;;;;;;;;;;;22.50;76.10;;;-151.14;100.00;62537.16;5091730;28;19926;-84
2023/06/24 07:14:10;;;;;;;;;;;22.50;76.20;;;18.08;100.00;62537.16;5091075;28;19920;-84
2023/06/24 07:16:38;;;;;;;;;;;22.50;76.00;;;-151.14;100.00;62537.16;5091081;28;19919;-84
2023/06/24 07:19:05;;;;;;;;;;;22.60;76.30;;;23.37;100.00;62537.16;5090975;28;19924;-84
2023/06/24 07:21:33;;;;;;;;;;;22.60;75.90;;;-151.14;100.00;62537.16;5090517;28;20123;-84
2023/06/24 07:24:01;;;;;;;;;;;22.60;75.30;;;-151.14;100.00;62537.16;5092052;28;19927;-84
2023/06/24 07:26:30;;;;;;;;;;;22.60;74.00;;;-151.14;100.00;62537.16;5090924;28;20097;-84
2023/06/24 07:28:58;;;;;;;;;;;22.60;74.50;;;-151.14;100.00;62537.16;5090829;28;19920;-84
2023/06/24 07:31:27;;;;;;;;;;;22.60;74.80;;;-151.14;100.00;62537.16;5091531;28;19927;-84
2023/06/24 07:33:55;;;;;;;;;;;22.70;74.70;;;-151.14;100.00;62537.16;5090700;28;19927;-84
2023/06/24 07:36:23;;;;;;;;;;;22.70;74.20;;;-151.14;100.00;62537.16;5090653;28;19926;-84
2023/06/24 07:38:52;;;;;;;;;;;22.70;74.40;;;-151.14;100.00;62537.16;5090697;28;19930;-84
2023/06/24 07:41:20;;;;;;;;;;;22.70;74.50;;;-151.14;100.00;62537.16;5086456;28;19927;-84
2023/06/24 07:43:50;;;;;;;;;;;22.70;74.40;;;22.02;100.00;62537.16;5070005;28;20194;-84
2023/06/24 07:46:18;;;;;;;;;;;22.70;73.90;;;-151.14;100.00;62537.16;5103998;28;19920;-84
2023/06/24 07:48:47;;;;;;;;;;;22.70;74.10;;;-151.14;100.00;62537.16;5053467;28;19920;-84
2023/06/24 07:51:15;;;;;;;;;;;22.70;74.00;;;-151.14;100.00;62537.16;5070023;28;20213;-85
2023/06/24 07:53:43;;;;;;;;;;;22.70;74.00;;;18.08;100.00;62537.16;5070280;28;19921;-84
2023/06/24 07:56:11;;;;;;;;;;;22.70;74.00;;;-151.14;100.00;62537.16;5070590;28;19927;-84
2023/06/24 07:58:39;;;;;;;;;;;22.70;73.90;;;-151.14;100.00;62537.16;5070281;28;19921;-84
2023/06/24 08:01:07;;;;;;;;;;;22.70;73.90;;;-151.14;100.00;62537.16;5070818;28;19920;-84
2023/06/24 08:03:36;;;;;;;;;;;22.70;73.90;;;-151.14;100.00;62537.16;5053316;28;19920;-84
2023/06/24 08:06:06;;;;;;;;;;;22.70;73.90;;;-151.14;100.00;62537.16;5086770;28;19927;-84
2023/06/24 08:08:35;;;;;;;;;;;22.70;73.90;;;-151.14;100.00;62537.16;5069877;28;19920;-84
2023/06/24 08:11:03;;;;;;;;;;;22.70;73.90;;;-151.14;100.00;62537.16;5071289;28;19927;-84
2023/06/24 08:13:31;;;;;;;;;;;22.70;74.10;;;-151.14;100.00;62537.16;5085468;28;20251;-83
2023/06/24 08:15:59;;;;;;;;;;;22.80;74.10;;;20.72;100.00;62537.16;5086860;28;19927;-84
2023/06/24 08:18:27;;;;;;;;;;;22.70;74.20;;;-151.14;100.00;62537.16;5070139;28;19927;-84
2023/06/24 08:20:55;;;;;;;;;;;22.70;74.20;;;-151.14;100.00;62537.16;5070107;28;19921;-84
2023/06/24 08:23:25;;;;;;;;;;;22.80;74.40;;;-151.14;100.00;62537.16;5069325;28;19920;-84
2023/06/24 08:25:53;;;;;;;;;;;22.80;74.40;;;-151.14;100.00;62537.16;5086693;28;19927;-84
2023/06/24 08:28:21;;;;;;;;;;;22.80;74.50;;;-151.14;100.00;62537.16;5086685;28;19974;-84
2023/06/24 08:30:49;;;;;;;;;;;22.80;74.50;;;-151.14;100.00;62537.16;5071109;28;20247;-85
2023/06/24 08:33:17;;;;;;;;;;;22.80;74.50;;;-151.14;100.00;62537.16;5069370;28;19920;-84
2023/06/24 08:35:45;;;;;;;;;;;22.80;74.60;;;-151.14;100.00;62537.16;5069540;28;19921;-84
2023/06/24 08:38:13;;;;;;;;;;;22.80;74.60;;;-151.14;100.00;62537.16;5069675;28;19920;-84
2023/06/24 08:40:43;;;;;;;;;;;22.80;74.40;;;-151.14;100.00;62537.16;5069819;28;19927;-85
2023/06/24 08:43:11;;;;;;;;;;;22.80;74.40;;;-151.14;100.00;62537.16;5085872;28;20209;-84
2023/06/24 08:45:39;;;;;;;;;;;22.80;74.70;;;-151.14;100.00;62537.16;5086525;28;19926;-85
2023/06/24 08:48:07;;;;;;;;;;;22.80;74.70;;;-151.14;100.00;62537.16;5069767;28;19920;-84
2023/06/24 08:50:37;;;;;;;;;;;22.80;75.00;;;-151.14;100.00;62537.16;5053066;28;19920;-84
2023/06/24 08:53:07;;;;;;;;;;;22.70;74.80;;;-151.14;100.00;62537.16;5085920;28;20244;-84
2023/06/24 08:55:37;;;;;;;;;;;22.70;75.00;;;-151.14;100.00;62537.16;5069477;28;19928;-84
2023/06/24 08:58:06;;;;;;;;;;;22.70;75.10;;;-151.14;100.00;62537.16;5069607;28;20116;-85
2023/06/24 09:00:35;;;;;;;;;;;22.70;75.00;;;-151.14;100.00;62537.16;5069273;28;19927;-86
2023/06/24 09:03:03;;;;;;;;;;;22.70;75.00;;;-151.14;100.00;62537.16;5085843;28;19926;-85
2023/06/24 09:05:31;;;;;;;;;;;22.70;75.20;;;-151.14;100.00;62537.16;5086235;28;19927;-85
2023/06/24 09:07:58;;;;;;;;;;;22.70;76.00;;;-151.14;100.00;62537.16;5052920;28;19927;-85
2023/06/24 09:10:31;;;;;;;;;;;22.60;76.00;;;-151.14;100.00;62537.16;5069417;28;19927;-85
2023/06/24 09:12:59;;;;;;;;;;;22.70;76.00;;;-151.14;100.00;62537.16;5069798;28;19927;-85
2023/06/24 09:15:32;;;;;;;;;;;22.70;76.40;;;-151.14;100.00;62537.16;5085788;28;19927;-86
2023/06/24 09:18:00;;;;;;;;;;;22.70;75.80;;;21.96;100.00;62537.16;5069513;28;19921;-85
2023/06/24 09:20:30;;;;;;;;;;;22.60;75.80;;;187.61;100.00;62537.16;5086029;28;19921;-85
2023/06/24 09:22:59;;;;;;;;;;;22.60;75.60;;;-151.14;100.00;62537.16;5069936;28;19921;-85
2023/06/24 09:25:27;;;;;;;;;;;22.70;75.60;;;-151.14;100.00;62537.16;5087100;28;19927;-85
2023/06/24 09:27:56;;;;;;;;;;;22.60;75.70;;;-151.14;100.00;62537.16;5072596;28;19927;-85
2023/06/24 09:30:24;;;;;;;;;;;22.70;75.60;;;-151.14;100.00;62537.16;5072600;28;20111;-86
2023/06/24 09:32:53;;;;;;;;;;;22.70;75.80;;;-151.14;100.00;62537.16;5088746;28;20116;-85
2023/06/24 09:35:22;;;;;;;;;;;22.60;76.00;;;21.90;100.00;62537.16;5072512;28;19921;-85
2023/06/24 09:37:51;;;;;;;;;;;22.60;75.80;;;-151.14;100.00;62537.16;5109756;28;19927;-85
2023/06/24 09:40:19;;;;;;;;;;;22.60;75.80;;;-151.14;100.00;62537.16;5092360;28;19920;-85
2023/06/24 09:42:51;;;;;;;;;;;22.60;76.00;;;-151.14;100.00;62537.16;5093241;28;19920;-85
2023/06/24 09:45:24;;;;;;;;;;;22.60;75.90;;;-151.14;100.00;62537.16;5093610;28;20238;-85
2023/06/24 09:47:53;;;;;;;;;;;22.60;76.10;;;18.08;100.00;62537.16;5093817;28;19946;-84
2023/06/24 09:50:21;;;;;;;;;;;22.60;76.10;;;21.86;100.00;62537.16;5092488;28;20230;-85
2023/06/24 09:52:50;;;;;;;;;;;22.60;76.10;;;-151.14;100.00;62537.16;5091805;28;19920;-85
2023/06/24 09:55:18;;;;;;;;;;;22.60;76.30;;;21.86;100.00;62537.16;5075490;28;19934;-85
2023/06/24 09:57:48;;;;;;;;;;;22.60;76.30;;;-151.14;100.00;62537.16;5075807;28;19927;-85
2023/06/24 10:00:16;;;;;;;;;;;22.50;76.50;;;-151.14;100.00;62537.16;5092136;28;19920;-85
2023/06/24 10:02:44;;;;;;;;;;;22.60;76.90;;;-151.14;100.00;62537.16;5075136;28;19935;-85
2023/06/24 10:05:14;;;;;;;;;;;22.60;76.60;;;-151.14;100.00;62537.16;5075594;28;19927;-85
2023/06/24 10:07:42;;;;;;;;;;;22.60;76.60;;;18.08;100.00;62537.16;5092323;28;20213;-85
2023/06/24 10:10:10;;;;;;;;;;;22.60;76.80;;;-151.14;100.00;62537.16;5092110;28;20112;-85
2023/06/24 10:12:38;;;;;;;;;;;22.60;76.70;;;28.66;100.00;62537.16;5081502;28;19927;-86
2023/06/24 10:15:07;;;;;;;;;;;22.60;76.60;;;-151.14;100.00;62537.16;5092167;28;19921;-85
2023/06/24 10:17:35;;;;;;;;;;;22.60;76.80;;;-151.14;100.00;62537.16;5109368;28;19982;-85
2023/06/24 10:20:05;;;;;;;;;;;22.60;76.90;;;-151.14;100.00;62537.16;5092372;28;19920;-85
2023/06/24 10:22:36;;;;;;;;;;;22.60;76.90;;;-151.14;100.00;62537.16;5091552;28;19920;-85
2023/06/24 10:25:06;;;;;;;;;;;22.60;77.40;;;-151.14;100.00;62537.16;5092057;28;19927;-85
2023/06/24 10:27:39;;;;;;;;;;;22.60;77.00;;;21.83;100.00;62537.16;5075321;28;19920;-85
2023/06/24 10:30:09;;;;;;;;;;;22.60;77.10;;;-151.14;100.00;62537.16;5075332;28;19920;-85
2023/06/24 10:32:42;;;;;;;;;;;22.60;76.90;;;23.37;100.00;62537.16;5091900;28;19920;-86
2023/06/24 10:35:22;;;;;;;;;;;22.60;77.00;;;-151.14;100.00;62537.16;5092967;28;19926;-85
2023/06/24 10:37:57;;;;;;;;;;;22.60;77.30;;;23.37;100.00;62537.16;5074705;28;19920;-86
2023/06/24 10:40:38;;;;;;;;;;;22.60;77.20;;;-151.14;100.00;62537.16;5075187;28;19927;-86
2023/06/24 10:43:27;;;;;;;;;;;22.60;77.40;;;21.81;100.00;62537.16;5092737;28;20135;-85
2023/06/24 10:45:55;;;;;;;;;;;22.50;77.40;;;-151.14;100.00;62537.16;5091732;28;19927;-86
2023/06/24 10:48:23;;;;;;;;;;;22.60;77.20;;;-151.14;100.00;62537.16;5092134;28;19920;-85
2023/06/24 10:50:51;;;;;;;;;;;22.60;77.30;;;-151.14;100.00;62537.16;5109165;28;19920;-85
2023/06/24 10:53:21;;;;;;;;;;;22.60;77.50;;;-151.14;100.00;62537.16;5090941;28;19926;-85
2023/06/24 10:55:48;;;;;;;;;;;22.60;77.40;;;-151.14;100.00;62537.16;5091366;28;20096;-85
2023/06/24 10:58:16;;;;;;;;;;;22.60;77.20;;;-151.14;100.00;62537.16;5091683;28;19920;-84
2023/06/24 11:00:46;;;;;;;;;;;22.60;78.50;;;21.84;100.00;62537.16;5091273;28;19927;-85
2023/06/24 11:03:14;;;;;;;;;;;22.60;78.00;;;-151.14;100.00;62537.16;5073954;28;19919;-86
2023/06/24 11:05:43;;;;;;;;;;;22.60;77.60;;;21.82;100.00;62537.16;5091135;28;20105;-84